sensor_id;sensor_type;location;lat;lon;timestamp;pressure;altitude;pressure_sealevel;temperature;humidity
30935;BME280;51033;42.648;23.292;2023-05-14T00:02:23;94255.09;;;13.80;47.53
30935;BME280;51033;42.648;23.292;2023-05-14T00:04:49;94257.22;;;13.95;47.93
30935;BME280;51033;42.648;23.292;2023-05-14T00:07:14;94270.34;;;14.08;47.71
30935;BME280;51033;42.648;23.292;2023-05-14T00:09:40;94276.66;;;14.12;48.19
30935;BME280;51033;42.648;23.292;2023-05-14T00:12:06;94273.91;;;14.21;48.13
30935;BME280;51033;42.648;23.292;2023-05-14T00:14:32;94269.94;;;14.27;47.88
30935;BME280;51033;42.648;23.292;2023-05-14T00:16:57;94256.38;;;14.32;48.09
30935;BME280;51033;42.648;23.292;2023-05-14T00:19:23;94270.78;;;14.40;48.06
30935;BME280;51033;42.648;23.292;2023-05-14T00:21:49;94254.75;;;14.40;48.98
30935;BME280;51033;42.648;23.292;2023-05-14T00:24:14;94263.84;;;14.18;49.44
30935;BME280;51033;42.648;23.292;2023-05-14T00:26:39;94267.09;;;14.32;50.08
30935;BME280;51033;42.648;23.292;2023-05-14T00:29:05;94251.59;;;14.38;49.85
30935;BME280;51033;42.648;23.292;2023-05-14T00:31:30;94231.56;;;14.23;48.99
30935;BME280;51033;42.648;23.292;2023-05-14T00:33:56;94243.38;;;14.22;48.92
30935;BME280;51033;42.648;23.292;2023-05-14T00:36:21;94205.41;;;14.08;49.64
30935;BME280;51033;42.648;23.292;2023-05-14T00:38:47;94245.41;;;14.25;49.69
30935;BME280;51033;42.648;23.292;2023-05-14T00:41:12;94245.25;;;14.42;48.45
30935;BME280;51033;42.648;23.292;2023-05-14T00:43:37;94229.34;;;14.25;49.92
30935;BME280;51033;42.648;23.292;2023-05-14T00:46:03;94212.38;;;14.21;48.77
30935;BME280;51033;42.648;23.292;2023-05-14T00:48:28;94224.66;;;14.22;48.11
30935;BME280;51033;42.648;23.292;2023-05-14T00:50:54;94233.06;;;13.83;48.78
30935;BME280;51033;42.648;23.292;2023-05-14T00:53:20;94223.66;;;13.77;48.18
30935;BME280;51033;42.648;23.292;2023-05-14T00:55:47;94228.66;;;13.87;47.75
30935;BME280;51033;42.648;23.292;2023-05-14T00:58:13;94235.09;;;13.86;48.19
30935;BME280;51033;42.648;23.292;2023-05-14T01:00:39;94229.19;;;14.01;46.86
30935;BME280;51033;42.648;23.292;2023-05-14T01:03:06;94225.31;;;13.60;46.36
30935;BME280;51033;42.648;23.292;2023-05-14T01:08:32;94238.56;;;11.28;51.13
30935;BME280;51033;42.648;23.292;2023-05-14T01:11:09;94243.81;;;11.11;52.12
30935;BME280;51033;42.648;23.292;2023-05-14T01:16:20;94223.13;;;10.55;53.90
30935;BME280;51033;42.648;23.292;2023-05-14T01:18:49;94229.16;;;10.47;54.84
30935;BME280;51033;42.648;23.292;2023-05-14T01:21:35;94245.88;;;10.61;54.93
30935;BME280;51033;42.648;23.292;2023-05-14T01:24:02;94242.22;;;10.57;54.96
30935;BME280;51033;42.648;23.292;2023-05-14T01:26:28;94219.81;;;10.36;55.23
30935;BME280;51033;42.648;23.292;2023-05-14T01:28:59;94234.66;;;10.50;54.80
30935;BME280;51033;42.648;23.292;2023-05-14T01:31:29;94235.22;;;10.61;54.51
30935;BME280;51033;42.648;23.292;2023-05-14T01:33:57;94264.34;;;10.88;54.05
30935;BME280;51033;42.648;23.292;2023-05-14T01:36:24;94277.16;;;11.08;53.45
30935;BME280;51033;42.648;23.292;2023-05-14T01:38:49;94250.59;;;11.26;52.38
30935;BME280;51033;42.648;23.292;2023-05-14T01:41:17;94243.66;;;11.47;51.79
30935;BME280;51033;42.648;23.292;2023-05-14T01:43:44;94259.22;;;12.01;51.68
30935;BME280;51033;42.648;23.292;2023-05-14T01:46:09;94247.81;;;12.27;49.51
30935;BME280;51033;42.648;23.292;2023-05-14T01:48:35;94260.97;;;12.15;50.15
30935;BME280;51033;42.648;23.292;2023-05-14T01:51:02;94245.19;;;12.61;49.74
30935;BME280;51033;42.648;23.292;2023-05-14T01:53:28;94239.03;;;12.69;48.19
30935;BME280;51033;42.648;23.292;2023-05-14T01:55:53;94259.88;;;13.02;49.24
30935;BME280;51033;42.648;23.292;2023-05-14T01:58:19;94262.69;;;13.14;48.99
30935;BME280;51033;42.648;23.292;2023-05-14T02:00:44;94256.97;;;13.32;49.19
30935;BME280;51033;42.648;23.292;2023-05-14T02:03:09;94247.19;;;13.45;48.88
30935;BME280;51033;42.648;23.292;2023-05-14T02:05:35;94249.25;;;13.48;48.48
30935;BME280;51033;42.648;23.292;2023-05-14T02:08:00;94252.66;;;13.57;48.19
30935;BME280;51033;42.648;23.292;2023-05-14T02:10:25;94238.34;;;13.62;47.92
30935;BME280;51033;42.648;23.292;2023-05-14T02:12:51;94253.59;;;13.61;48.36
30935;BME280;51033;42.648;23.292;2023-05-14T02:15:16;94251.56;;;13.03;49.13
30935;BME280;51033;42.648;23.292;2023-05-14T02:17:42;94255.06;;;13.42;48.71
30935;BME280;51033;42.648;23.292;2023-05-14T02:20:07;94262.44;;;13.53;47.98
30935;BME280;51033;42.648;23.292;2023-05-14T02:22:34;94257.38;;;13.60;47.77
30935;BME280;51033;42.648;23.292;2023-05-14T02:25:00;94269.00;;;13.64;47.84
30935;BME280;51033;42.648;23.292;2023-05-14T02:27:25;94252.78;;;13.23;49.33
30935;BME280;51033;42.648;23.292;2023-05-14T02:29:51;94270.31;;;13.41;48.60
30935;BME280;51033;42.648;23.292;2023-05-14T02:32:17;94267.63;;;13.41;48.15
30935;BME280;51033;42.648;23.292;2023-05-14T02:34:42;94258.56;;;13.33;48.37
30935;BME280;51033;42.648;23.292;2023-05-14T02:37:07;94259.81;;;13.27;47.37
30935;BME280;51033;42.648;23.292;2023-05-14T02:39:33;94272.28;;;13.15;48.39
30935;BME280;51033;42.648;23.292;2023-05-14T02:41:58;94265.03;;;13.24;47.68
30935;BME280;51033;42.648;23.292;2023-05-14T02:44:23;94291.31;;;13.05;49.27
30935;BME280;51033;42.648;23.292;2023-05-14T02:46:49;94264.31;;;12.72;49.28
30935;BME280;51033;42.648;23.292;2023-05-14T02:49:15;94295.34;;;13.28;49.16
30935;BME280;51033;42.648;23.292;2023-05-14T02:51:41;94307.44;;;13.17;48.49
30935;BME280;51033;42.648;23.292;2023-05-14T02:54:07;94300.50;;;13.42;48.49
30935;BME280;51033;42.648;23.292;2023-05-14T02:56:34;94288.69;;;13.43;47.86
30935;BME280;51033;42.648;23.292;2023-05-14T02:58:59;94288.72;;;13.25;48.72
30935;BME280;51033;42.648;23.292;2023-05-14T03:01:25;94304.81;;;13.00;49.21
30935;BME280;51033;42.648;23.292;2023-05-14T03:03:50;94302.84;;;13.43;48.13
30935;BME280;51033;42.648;23.292;2023-05-14T03:06:15;94293.22;;;13.51;48.34
30935;BME280;51033;42.648;23.292;2023-05-14T03:08:41;94286.59;;;13.65;48.65
30935;BME280;51033;42.648;23.292;2023-05-14T03:11:06;94278.81;;;13.43;48.41
30935;BME280;51033;42.648;23.292;2023-05-14T03:13:32;94229.31;;;12.65;50.31
30935;BME280;51033;42.648;23.292;2023-05-14T03:15:57;94266.63;;;12.30;51.12
30935;BME280;51033;42.648;23.292;2023-05-14T03:18:22;94280.31;;;12.46;50.69
30935;BME280;51033;42.648;23.292;2023-05-14T03:20:48;94275.44;;;12.39;50.93
30935;BME280;51033;42.648;23.292;2023-05-14T03:23:13;94264.16;;;12.85;52.28
30935;BME280;51033;42.648;23.292;2023-05-14T03:25:39;94275.28;;;12.53;52.64
30935;BME280;51033;42.648;23.292;2023-05-14T03:28:05;94270.91;;;12.83;52.14
30935;BME280;51033;42.648;23.292;2023-05-14T03:30:30;94274.66;;;12.99;52.61
30935;BME280;51033;42.648;23.292;2023-05-14T03:32:56;94271.66;;;13.09;52.50
30935;BME280;51033;42.648;23.292;2023-05-14T03:35:22;94251.88;;;13.02;51.94
30935;BME280;51033;42.648;23.292;2023-05-14T03:37:47;94271.84;;;11.79;55.10
30935;BME280;51033;42.648;23.292;2023-05-14T03:40:12;94251.03;;;10.44;60.57
30935;BME280;51033;42.648;23.292;2023-05-14T03:42:38;94291.75;;;10.03;64.67
30935;BME280;51033;42.648;23.292;2023-05-14T03:45:03;94288.09;;;10.26;65.06
30935;BME280;51033;42.648;23.292;2023-05-14T03:47:29;94286.59;;;10.70;63.04
30935;BME280;51033;42.648;23.292;2023-05-14T03:49:55;94281.78;;;11.25;61.36
30935;BME280;51033;42.648;23.292;2023-05-14T03:52:21;94277.50;;;11.77;59.27
30935;BME280;51033;42.648;23.292;2023-05-14T03:54:46;94286.25;;;12.26;57.42
30935;BME280;51033;42.648;23.292;2023-05-14T03:57:11;94278.09;;;12.48;56.44
30935;BME280;51033;42.648;23.292;2023-05-14T03:59:37;94283.00;;;12.63;55.60
30935;BME280;51033;42.648;23.292;2023-05-14T04:02:02;94282.22;;;12.63;55.59
30935;BME280;51033;42.648;23.292;2023-05-14T04:04:28;94270.75;;;12.79;54.61
30935;BME280;51033;42.648;23.292;2023-05-14T04:06:53;94277.97;;;12.87;54.75
30935;BME280;51033;42.648;23.292;2023-05-14T04:09:18;94286.56;;;13.02;54.03
30935;BME280;51033;42.648;23.292;2023-05-14T04:11:44;94273.25;;;12.93;54.44
30935;BME280;51033;42.648;23.292;2023-05-14T04:14:09;94289.56;;;13.09;53.87
30935;BME280;51033;42.648;23.292;2023-05-14T04:16:34;94293.81;;;13.10;53.47
30935;BME280;51033;42.648;23.292;2023-05-14T04:19:01;94283.63;;;12.77;54.13
30935;BME280;51033;42.648;23.292;2023-05-14T04:21:30;94299.59;;;13.12;53.74
30935;BME280;51033;42.648;23.292;2023-05-14T04:23:56;94268.22;;;13.00;53.28
30935;BME280;51033;42.648;23.292;2023-05-14T04:26:21;94306.69;;;12.56;53.54
30935;BME280;51033;42.648;23.292;2023-05-14T04:28:47;94304.03;;;12.91;53.62
30935;BME280;51033;42.648;23.292;2023-05-14T04:31:12;94313.91;;;13.24;53.22
30935;BME280;51033;42.648;23.292;2023-05-14T04:33:38;94297.88;;;13.16;53.31
30935;BME280;51033;42.648;23.292;2023-05-14T04:36:04;94320.47;;;13.27;52.79
30935;BME280;51033;42.648;23.292;2023-05-14T04:38:30;94328.50;;;13.27;54.06
30935;BME280;51033;42.648;23.292;2023-05-14T04:40:56;94330.38;;;13.26;54.57
30935;BME280;51033;42.648;23.292;2023-05-14T04:43:22;94328.63;;;13.30;53.84
30935;BME280;51033;42.648;23.292;2023-05-14T04:45:47;94340.75;;;13.28;54.62
30935;BME280;51033;42.648;23.292;2023-05-14T04:48:13;94323.78;;;13.24;56.17
30935;BME280;51033;42.648;23.292;2023-05-14T04:50:38;94347.66;;;13.12;57.10
30935;BME280;51033;42.648;23.292;2023-05-14T04:53:04;94340.44;;;13.12;57.75
30935;BME280;51033;42.648;23.292;2023-05-14T04:55:29;94353.88;;;12.38;57.59
30935;BME280;51033;42.648;23.292;2023-05-14T04:57:55;94343.81;;;12.27;56.82
30935;BME280;51033;42.648;23.292;2023-05-14T05:00:20;94353.50;;;12.71;58.77
30935;BME280;51033;42.648;23.292;2023-05-14T05:02:46;94327.56;;;12.71;58.42
30935;BME280;51033;42.648;23.292;2023-05-14T05:05:12;94375.66;;;13.14;58.82
30935;BME280;51033;42.648;23.292;2023-05-14T05:07:37;94371.25;;;12.93;59.40
30935;BME280;51033;42.648;23.292;2023-05-14T05:10:03;94368.41;;;12.98;59.21
30935;BME280;51033;42.648;23.292;2023-05-14T05:12:28;94375.59;;;12.71;60.59
30935;BME280;51033;42.648;23.292;2023-05-14T05:15:00;94389.44;;;12.73;60.92
30935;BME280;51033;42.648;23.292;2023-05-14T05:17:25;94377.81;;;12.69;62.31
30935;BME280;51033;42.648;23.292;2023-05-14T05:19:51;94388.03;;;12.84;61.64
30935;BME280;51033;42.648;23.292;2023-05-14T05:22:16;94350.66;;;12.59;62.55
30935;BME280;51033;42.648;23.292;2023-05-14T05:24:43;94400.16;;;12.91;62.94
30935;BME280;51033;42.648;23.292;2023-05-14T05:27:08;94402.81;;;12.91;62.79
30935;BME280;51033;42.648;23.292;2023-05-14T05:29:35;94393.53;;;12.97;63.05
30935;BME280;51033;42.648;23.292;2023-05-14T05:32:00;94391.66;;;12.97;63.16
30935;BME280;51033;42.648;23.292;2023-05-14T05:34:26;94405.63;;;13.03;62.71
30935;BME280;51033;42.648;23.292;2023-05-14T05:36:51;94410.69;;;13.04;61.63
30935;BME280;51033;42.648;23.292;2023-05-14T05:39:17;94396.38;;;13.09;61.90
30935;BME280;51033;42.648;23.292;2023-05-14T05:41:42;94364.09;;;12.54;62.97
30935;BME280;51033;42.648;23.292;2023-05-14T05:44:08;94404.38;;;12.74;62.18
30935;BME280;51033;42.648;23.292;2023-05-14T05:46:34;94397.00;;;12.88;62.21
30935;BME280;51033;42.648;23.292;2023-05-14T05:48:59;94408.91;;;12.65;61.88
30935;BME280;51033;42.648;23.292;2023-05-14T05:51:25;94401.25;;;12.89;62.82
30935;BME280;51033;42.648;23.292;2023-05-14T05:53:50;94415.38;;;13.16;62.59
30935;BME280;51033;42.648;23.292;2023-05-14T05:56:15;94408.44;;;13.41;59.78
30935;BME280;51033;42.648;23.292;2023-05-14T05:58:41;94404.38;;;13.60;56.91
30935;BME280;51033;42.648;23.292;2023-05-14T06:01:06;94397.00;;;13.23;59.46
30935;BME280;51033;42.648;23.292;2023-05-14T06:03:32;94402.19;;;13.02;61.58
30935;BME280;51033;42.648;23.292;2023-05-14T06:05:57;94391.31;;;12.81;62.68
30935;BME280;51033;42.648;23.292;2023-05-14T06:08:22;94396.69;;;12.99;61.95
30935;BME280;51033;42.648;23.292;2023-05-14T06:10:48;94392.63;;;13.10;61.88
30935;BME280;51033;42.648;23.292;2023-05-14T06:13:13;94397.75;;;12.63;64.88
30935;BME280;51033;42.648;23.292;2023-05-14T06:15:39;94409.50;;;12.62;64.97
30935;BME280;51033;42.648;23.292;2023-05-14T06:18:04;94412.53;;;12.30;66.13
30935;BME280;51033;42.648;23.292;2023-05-14T06:20:29;94404.44;;;11.06;69.37
30935;BME280;51033;42.648;23.292;2023-05-14T06:22:55;94398.91;;;10.81;71.08
30935;BME280;51033;42.648;23.292;2023-05-14T06:25:20;94400.28;;;10.78;71.14
30935;BME280;51033;42.648;23.292;2023-05-14T06:27:46;94394.41;;;10.54;72.29
30935;BME280;51033;42.648;23.292;2023-05-14T06:30:12;94403.22;;;11.35;68.44
30935;BME280;51033;42.648;23.292;2023-05-14T06:32:37;94412.31;;;11.34;68.80
30935;BME280;51033;42.648;23.292;2023-05-14T06:35:03;94419.81;;;11.32;68.18
30935;BME280;51033;42.648;23.292;2023-05-14T06:37:29;94399.88;;;10.71;69.40
30935;BME280;51033;42.648;23.292;2023-05-14T06:39:54;94394.84;;;10.83;70.33
30935;BME280;51033;42.648;23.292;2023-05-14T06:42:20;94406.84;;;10.45;70.08
30935;BME280;51033;42.648;23.292;2023-05-14T06:44:45;94398.25;;;10.97;69.18
30935;BME280;51033;42.648;23.292;2023-05-14T06:47:11;94424.69;;;10.94;68.62
30935;BME280;51033;42.648;23.292;2023-05-14T06:49:37;94370.38;;;10.59;70.01
30935;BME280;51033;42.648;23.292;2023-05-14T06:52:03;94382.00;;;10.08;71.55
30935;BME280;51033;42.648;23.292;2023-05-14T06:54:29;94384.56;;;9.86;74.11
30935;BME280;51033;42.648;23.292;2023-05-14T06:56:55;94393.97;;;9.65;75.02
30935;BME280;51033;42.648;23.292;2023-05-14T06:59:20;94375.16;;;9.15;76.58
30935;BME280;51033;42.648;23.292;2023-05-14T07:01:46;94387.00;;;9.23;77.19
30935;BME280;51033;42.648;23.292;2023-05-14T07:04:11;94395.72;;;9.42;76.87
30935;BME280;51033;42.648;23.292;2023-05-14T07:06:36;94393.09;;;9.56;77.11
30935;BME280;51033;42.648;23.292;2023-05-14T07:09:02;94391.34;;;9.32;76.88
30935;BME280;51033;42.648;23.292;2023-05-14T07:11:28;94388.97;;;9.31;77.86
30935;BME280;51033;42.648;23.292;2023-05-14T07:13:53;94383.97;;;9.29;76.47
30935;BME280;51033;42.648;23.292;2023-05-14T07:16:18;94419.34;;;9.25;78.08
30935;BME280;51033;42.648;23.292;2023-05-14T07:18:44;94440.44;;;9.67;76.87
30935;BME280;51033;42.648;23.292;2023-05-14T07:21:10;94444.53;;;9.60;74.43
30935;BME280;51033;42.648;23.292;2023-05-14T07:23:37;94437.41;;;9.41;74.75
30935;BME280;51033;42.648;23.292;2023-05-14T07:26:05;94426.03;;;9.55;74.28
30935;BME280;51033;42.648;23.292;2023-05-14T07:28:31;94432.94;;;9.69;74.52
30935;BME280;51033;42.648;23.292;2023-05-14T07:30:57;94411.84;;;9.78;74.03
30935;BME280;51033;42.648;23.292;2023-05-14T07:33:23;94397.34;;;9.70;74.40
30935;BME280;51033;42.648;23.292;2023-05-14T07:35:49;94423.47;;;10.09;73.48
30935;BME280;51033;42.648;23.292;2023-05-14T07:38:14;94419.22;;;10.63;70.96
30935;BME280;51033;42.648;23.292;2023-05-14T07:40:40;94417.50;;;10.94;69.21
30935;BME280;51033;42.648;23.292;2023-05-14T07:43:06;94421.19;;;10.71;68.97
30935;BME280;51033;42.648;23.292;2023-05-14T07:45:31;94413.53;;;10.42;70.77
30935;BME280;51033;42.648;23.292;2023-05-14T07:47:56;94432.66;;;10.94;69.67
30935;BME280;51033;42.648;23.292;2023-05-14T07:50:22;94419.25;;;10.36;70.79
30935;BME280;51033;42.648;23.292;2023-05-14T07:52:47;94439.13;;;10.24;72.06
30935;BME280;51033;42.648;23.292;2023-05-14T07:55:13;94426.72;;;10.47;70.99
30935;BME280;51033;42.648;23.292;2023-05-14T07:57:38;94432.41;;;10.27;72.64
30935;BME280;51033;42.648;23.292;2023-05-14T08:00:05;94428.56;;;9.92;72.63
30935;BME280;51033;42.648;23.292;2023-05-14T08:02:34;94433.81;;;10.11;73.38
30935;BME280;51033;42.648;23.292;2023-05-14T08:04:59;94428.84;;;9.77;74.90
30935;BME280;51033;42.648;23.292;2023-05-14T08:07:25;94434.97;;;10.18;73.64
30935;BME280;51033;42.648;23.292;2023-05-14T08:09:53;94444.72;;;10.78;72.30
30935;BME280;51033;42.648;23.292;2023-05-14T08:12:19;94423.56;;;10.04;72.89
30935;BME280;51033;42.648;23.292;2023-05-14T08:14:44;94414.22;;;9.47;75.39
30935;BME280;51033;42.648;23.292;2023-05-14T08:17:10;94409.59;;;9.01;78.40
30935;BME280;51033;42.648;23.292;2023-05-14T08:19:35;94411.31;;;9.11;78.89
30935;BME280;51033;42.648;23.292;2023-05-14T08:22:01;94387.66;;;8.96;78.99
30935;BME280;51033;42.648;23.292;2023-05-14T08:24:26;94400.19;;;9.28;78.42
30935;BME280;51033;42.648;23.292;2023-05-14T08:26:51;94409.91;;;9.19;79.40
30935;BME280;51033;42.648;23.292;2023-05-14T08:29:17;94411.59;;;8.91;79.92
30935;BME280;51033;42.648;23.292;2023-05-14T08:31:43;94407.19;;;8.25;82.11
30935;BME280;51033;42.648;23.292;2023-05-14T08:34:08;94422.72;;;8.55;82.06
30935;BME280;51033;42.648;23.292;2023-05-14T08:36:33;94404.28;;;8.83;81.69
30935;BME280;51033;42.648;23.292;2023-05-14T08:38:59;94397.41;;;8.82;80.71
30935;BME280;51033;42.648;23.292;2023-05-14T08:41:24;94347.22;;;8.10;82.53
30935;BME280;51033;42.648;23.292;2023-05-14T08:46:28;94380.47;;;8.96;82.37
30935;BME280;51033;42.648;23.292;2023-05-14T08:48:58;94375.91;;;9.34;80.59
30935;BME280;51033;42.648;23.292;2023-05-14T08:51:25;94401.59;;;9.85;78.92
30935;BME280;51033;42.648;23.292;2023-05-14T08:53:52;94403.66;;;9.88;78.31
30935;BME280;51033;42.648;23.292;2023-05-14T08:56:17;94388.66;;;9.65;77.57
30935;BME280;51033;42.648;23.292;2023-05-14T08:58:44;94400.59;;;9.67;77.57
30935;BME280;51033;42.648;23.292;2023-05-14T09:01:09;94391.03;;;9.53;76.89
30935;BME280;51033;42.648;23.292;2023-05-14T09:03:36;94396.34;;;9.53;77.35
30935;BME280;51033;42.648;23.292;2023-05-14T09:06:03;94400.69;;;9.62;77.80
30935;BME280;51033;42.648;23.292;2023-05-14T09:08:30;94382.19;;;9.06;78.89
30935;BME280;51033;42.648;23.292;2023-05-14T09:10:55;94393.50;;;9.30;78.61
30935;BME280;51033;42.648;23.292;2023-05-14T09:13:21;94387.00;;;9.04;79.33
30935;BME280;51033;42.648;23.292;2023-05-14T09:15:47;94370.72;;;8.92;80.68
30935;BME280;51033;42.648;23.292;2023-05-14T09:18:13;94385.09;;;8.72;80.79
30935;BME280;51033;42.648;23.292;2023-05-14T09:20:38;94383.22;;;8.73;80.80
30935;BME280;51033;42.648;23.292;2023-05-14T09:23:04;94409.59;;;9.01;81.12
30935;BME280;51033;42.648;23.292;2023-05-14T09:25:32;94399.28;;;9.65;78.60
30935;BME280;51033;42.648;23.292;2023-05-14T09:27:58;94393.53;;;9.76;77.72
30935;BME280;51033;42.648;23.292;2023-05-14T09:30:24;94386.03;;;9.78;77.81
30935;BME280;51033;42.648;23.292;2023-05-14T09:32:52;94362.63;;;9.94;77.64
30935;BME280;51033;42.648;23.292;2023-05-14T09:35:24;94384.91;;;9.20;78.80
30935;BME280;51033;42.648;23.292;2023-05-14T09:37:53;94387.41;;;9.62;78.27
30935;BME280;51033;42.648;23.292;2023-05-14T09:40:20;94387.81;;;9.83;77.41
30935;BME280;51033;42.648;23.292;2023-05-14T09:42:46;94378.03;;;9.51;78.33
30935;BME280;51033;42.648;23.292;2023-05-14T09:45:15;94360.69;;;9.40;78.02
30935;BME280;51033;42.648;23.292;2023-05-14T09:47:41;94342.28;;;9.30;77.81
30935;BME280;51033;42.648;23.292;2023-05-14T09:50:07;94355.44;;;9.67;77.85
30935;BME280;51033;42.648;23.292;2023-05-14T09:52:34;94364.84;;;9.60;77.50
30935;BME280;51033;42.648;23.292;2023-05-14T09:55:00;94362.97;;;9.47;78.43
30935;BME280;51033;42.648;23.292;2023-05-14T09:57:26;94359.38;;;9.70;77.42
30935;BME280;51033;42.648;23.292;2023-05-14T09:59:52;94361.16;;;9.10;78.41
30935;BME280;51033;42.648;23.292;2023-05-14T10:02:22;94364.81;;;9.32;79.24
30935;BME280;51033;42.648;23.292;2023-05-14T10:04:49;94316.69;;;9.53;77.35
30935;BME280;51033;42.648;23.292;2023-05-14T10:07:18;94351.84;;;9.44;78.35
30935;BME280;51033;42.648;23.292;2023-05-14T10:09:46;94340.84;;;9.37;78.18
30935;BME280;51033;42.648;23.292;2023-05-14T10:12:13;94343.03;;;9.63;77.99
30935;BME280;51033;42.648;23.292;2023-05-14T10:14:46;94335.88;;;9.77;77.41
30935;BME280;51033;42.648;23.292;2023-05-14T10:17:16;94327.00;;;9.81;77.31
30935;BME280;51033;42.648;23.292;2023-05-14T10:19:49;94314.69;;;9.99;77.06
30935;BME280;51033;42.648;23.292;2023-05-14T10:22:18;94330.44;;;9.55;78.04
30935;BME280;51033;42.648;23.292;2023-05-14T10:24:47;94319.41;;;9.48;78.20
30935;BME280;51033;42.648;23.292;2023-05-14T10:27:14;94323.53;;;10.08;76.95
30935;BME280;51033;42.648;23.292;2023-05-14T10:29:50;94340.66;;;10.43;75.00
30935;BME280;51033;42.648;23.292;2023-05-14T10:32:19;94326.13;;;10.00;75.70
30935;BME280;51033;42.648;23.292;2023-05-14T10:34:45;94351.72;;;10.37;75.43
30935;BME280;51033;42.648;23.292;2023-05-14T10:37:15;94326.91;;;10.00;74.54
30935;BME280;51033;42.648;23.292;2023-05-14T10:39:51;94329.66;;;9.68;77.47
30935;BME280;51033;42.648;23.292;2023-05-14T10:42:35;94333.19;;;10.31;75.37
30935;BME280;51033;42.648;23.292;2023-05-14T10:45:06;94337.09;;;10.48;73.91
30935;BME280;51033;42.648;23.292;2023-05-14T10:47:37;94318.28;;;10.80;72.80
30935;BME280;51033;42.648;23.292;2023-05-14T10:50:05;94299.38;;;10.32;74.98
30935;BME280;51033;42.648;23.292;2023-05-14T10:52:32;94317.63;;;10.39;76.48
30935;BME280;51033;42.648;23.292;2023-05-14T10:55:00;94327.94;;;10.76;74.47
30935;BME280;51033;42.648;23.292;2023-05-14T10:57:29;94334.25;;;11.25;72.65
30935;BME280;51033;42.648;23.292;2023-05-14T10:59:57;94291.44;;;10.18;76.12
30935;BME280;51033;42.648;23.292;2023-05-14T11:02:31;94298.91;;;10.44;77.97
30935;BME280;51033;42.648;23.292;2023-05-14T11:04:58;94308.56;;;10.12;78.75
30935;BME280;51033;42.648;23.292;2023-05-14T11:07:27;94327.47;;;10.38;77.29
30935;BME280;51033;42.648;23.292;2023-05-14T11:09:59;94322.88;;;10.66;74.73
30935;BME280;51033;42.648;23.292;2023-05-14T11:12:26;94323.78;;;11.06;73.50
30935;BME280;51033;42.648;23.292;2023-05-14T11:14:52;94316.16;;;11.13;73.13
30935;BME280;51033;42.648;23.292;2023-05-14T11:17:17;94319.97;;;11.21;73.23
30935;BME280;51033;42.648;23.292;2023-05-14T11:19:44;94331.97;;;11.40;72.96
30935;BME280;51033;42.648;23.292;2023-05-14T11:22:10;94339.31;;;11.35;72.73
30935;BME280;51033;42.648;23.292;2023-05-14T11:24:38;94330.69;;;11.29;72.52
30935;BME280;51033;42.648;23.292;2023-05-14T11:27:06;94313.03;;;11.42;72.17
30935;BME280;51033;42.648;23.292;2023-05-14T11:29:32;94318.41;;;11.81;71.14
30935;BME280;51033;42.648;23.292;2023-05-14T11:31:57;94305.78;;;11.03;72.16
30935;BME280;51033;42.648;23.292;2023-05-14T11:34:23;94314.66;;;10.98;73.95
30935;BME280;51033;42.648;23.292;2023-05-14T11:36:48;94329.66;;;11.16;73.69
30935;BME280;51033;42.648;23.292;2023-05-14T11:39:17;94329.22;;;10.43;75.54
30935;BME280;51033;42.648;23.292;2023-05-14T11:41:46;94308.59;;;9.99;76.31
30935;BME280;51033;42.648;23.292;2023-05-14T11:44:11;94301.53;;;9.80;79.41
30935;BME280;51033;42.648;23.292;2023-05-14T11:46:37;94287.31;;;10.26;78.68
30935;BME280;51033;42.648;23.292;2023-05-14T11:49:03;94300.00;;;10.29;79.00
30935;BME280;51033;42.648;23.292;2023-05-14T11:51:29;94276.94;;;9.75;79.68
30935;BME280;51033;42.648;23.292;2023-05-14T11:53:54;94301.13;;;10.01;78.56
30935;BME280;51033;42.648;23.292;2023-05-14T11:56:20;94263.25;;;9.54;79.30
30935;BME280;51033;42.648;23.292;2023-05-14T11:58:47;94299.09;;;10.33;77.96
30935;BME280;51033;42.648;23.292;2023-05-14T12:01:14;94300.94;;;9.70;79.95
30935;BME280;51033;42.648;23.292;2023-05-14T12:03:40;94298.44;;;9.00;82.35
30935;BME280;51033;42.648;23.292;2023-05-14T12:06:06;94302.09;;;9.36;82.33
30935;BME280;51033;42.648;23.292;2023-05-14T12:08:35;94284.84;;;8.88;82.49
30935;BME280;51033;42.648;23.292;2023-05-14T12:11:02;94293.31;;;8.90;83.05
30935;BME280;51033;42.648;23.292;2023-05-14T12:13:29;94271.41;;;9.30;82.73
30935;BME280;51033;42.648;23.292;2023-05-14T12:15:57;94266.13;;;9.58;82.75
30935;BME280;51033;42.648;23.292;2023-05-14T12:18:28;94258.22;;;9.80;82.48
30935;BME280;51033;42.648;23.292;2023-05-14T12:20:54;94266.50;;;9.37;82.09
30935;BME280;51033;42.648;23.292;2023-05-14T12:23:27;94246.44;;;9.59;82.61
30935;BME280;51033;42.648;23.292;2023-05-14T12:25:53;94251.09;;;9.07;83.98
30935;BME280;51033;42.648;23.292;2023-05-14T12:28:18;94240.34;;;9.44;83.74
30935;BME280;51033;42.648;23.292;2023-05-14T12:30:47;94232.19;;;9.14;82.91
30935;BME280;51033;42.648;23.292;2023-05-14T12:33:13;94237.78;;;9.39;82.23
30935;BME280;51033;42.648;23.292;2023-05-14T12:35:39;94244.09;;;9.43;82.94
30935;BME280;51033;42.648;23.292;2023-05-14T12:38:05;94239.97;;;10.14;80.66
30935;BME280;51033;42.648;23.292;2023-05-14T12:40:30;94242.03;;;9.68;80.15
30935;BME280;51033;42.648;23.292;2023-05-14T12:42:56;94239.44;;;9.90;80.82
30935;BME280;51033;42.648;23.292;2023-05-14T12:45:22;94235.38;;;10.06;80.58
30935;BME280;51033;42.648;23.292;2023-05-14T12:47:47;94246.88;;;10.15;80.13
30935;BME280;51033;42.648;23.292;2023-05-14T12:50:13;94237.66;;;10.35;79.11
30935;BME280;51033;42.648;23.292;2023-05-14T12:52:38;94224.03;;;10.14;79.24
30935;BME280;51033;42.648;23.292;2023-05-14T12:55:08;94236.28;;;10.38;78.60
30935;BME280;51033;42.648;23.292;2023-05-14T12:57:34;94232.59;;;10.11;79.06